Flight Track Log - Related Links

Times and Time Zones

All times are in EST time to prevent confusion due to time zone crossing. See the SWA2490 flight status page for this flight to view local times or setup timezone preferences in your user account.

Time Position Orientation Groundspeed Altitude Reporting Facility
EDT Latitude Longitude Course Direction KTS MPH feet Rate Location/Type
Sun 03:13:42 AM 33.4333 -112.0000 334° Northwest 142 163 2,200  Level Phoenix TRACON
Sun 03:14:30 AM 33.4333 -111.9500 90° East 211 243 4,400 2,716 Climbing Phoenix TRACON
Sun 03:15:17 AM 33.4317 -111.8986 92° East 226 260 6,500 3,722 Climbing Albuquerque Center
Sun 03:16:18 AM 33.4883 -111.8414 40° Northeast 271 312 11,100 3,967 Climbing Albuquerque Center
Sun 03:17:18 AM 33.5556 -111.9133 318° Northwest 329 379 14,500 3,570 Climbing Albuquerque Center
Sun 03:18:19 AM 33.6253 -111.9942 316° Northwest 345 397 18,300 3,620 Climbing Albuquerque Center
Sun 03:19:00 AM 33.8990 -112.2650 334° Northwest  Level FlightAware Approximate
Sun 03:19:19 AM 33.6989 -112.0792 316° Northwest 362 417 21,800  Level Albuquerque Center
Sun 03:20:19 AM 33.7753 -112.1686 316° Northwest 378 435 24,900 2,876 Climbing Albuquerque Center
Sun 03:21:20 AM 33.8550 -112.2606 316° Northwest 391 450 27,600 2,678 Climbing Albuquerque Center
Sun 03:22:20 AM 33.9358 -112.3567 315° West 404 465 30,300 2,380 Climbing Albuquerque Center
Sun 03:23:21 AM 34.0178 -112.4514 316° Northwest 408 470 32,400 1,835 Climbing Albuquerque Center
Sun 03:24:21 AM 34.1017 -112.5497 316° Northwest 418 481 34,000 650 Climbing Albuquerque Center
Sun 03:25:21 AM 34.1881 -112.6519 316° Northwest 432 497 33,700 -1,289 Descending Albuquerque Center
Sun 03:26:22 AM 34.2739 -112.7531 316° Northwest 432 497 31,400 -1,835 Descending Albuquerque Center
Sun 03:27:22 AM 34.3586 -112.8508 316° Northwest 424 488 30,000 -694 Descending Albuquerque Center
Sun 03:28:23 AM 34.4444 -112.9533 315° West 430 495 30,000  Level Albuquerque Center
Sun 03:29:23 AM 34.5256 -113.0475 316° Northwest 436 502 30,000  Level Albuquerque Center
Sun 03:30:23 AM 34.6106 -113.1497 315° West 432 497 30,000  Level Albuquerque Center
Sun 03:31:24 AM 34.6964 -113.2522 316° Northwest 433 498 30,000  Level Albuquerque Center
Sun 03:32:24 AM 34.7842 -113.3497 318° Northwest 429 494 30,000  Level Albuquerque Center
Sun 03:33:24 AM 34.8733 -113.4442 319° Northwest 424 488 30,000  Level Albuquerque Center
Sun 03:34:20 AM 34.9608 -113.5381 319° Northwest 419 482 30,000  Level Los Angeles Center
Sun 03:35:21 AM 35.0519 -113.6353 319° Northwest 427 491 30,000  Level Los Angeles Center
Sun 03:36:21 AM 35.1439 -113.7347 319° Northwest 437 503 30,000 -843 Level Los Angeles Center
Sun 03:37:22 AM 35.2364 -113.8353 318° Northwest 442 509 28,300 -2,331 Descending Los Angeles Center
Sun 03:38:22 AM 35.3272 -113.9317 319° Northwest 435 501 25,300 -2,850 Descending Los Angeles Center
Sun 03:39:22 AM 35.4025 -114.0142 318° Northwest 414 476 22,600 -2,876 Descending Los Angeles Center
Sun 03:40:23 AM 35.4922 -114.1106 319° Northwest 393 452 19,500 -2,508 Descending Los Angeles Center
Sun 03:41:24 AM 35.5667 -114.1917 318° Northwest 366 421 17,500 -2,182 Descending Los Angeles Center
Sun 03:42:24 AM 35.6433 -114.2750 319° Northwest 341 392 15,100 -2,357 Descending Los Angeles Center
Sun 03:42:48 AM 35.6681 -114.3031 317° Northwest 336 387 14,200 -2,204 Descending Los Angeles Center
Sun 03:43:13 AM 35.6992 -114.3350 320° Northwest 329 379 13,300 -1,553 Descending Los Angeles Center
Sun 03:44:13 AM 35.7711 -114.3956 326° Northwest 319 367 12,000 -992 Descending Los Angeles Center
Sun 03:45:20 AM 35.8517 -114.4453 333° Northwest 307 353 11,200 -844 Descending Los Angeles Center
Sun 03:46:21 AM 35.8914 -114.5356 299° West 294 338 10,200 -1,286 Descending Los Angeles Center
Sun 03:47:26 AM 35.9308 -114.6244 299° West 269 310 8,500 -1,240 Descending Los Angeles Center
Sun 03:48:22 AM 35.9647 -114.6997 299° West 263 303 7,700 -982 Descending Los Angeles Center
Sun 03:49:16 AM 35.9958 -114.7719 298° West 257 296 6,700 -730 Descending Los Angeles Center
Sun 03:50:17 AM 36.0267 -114.8439 298° West 240 276 6,300 -516 Descending Los Angeles Center
Sun 03:51:24 AM 36.0603 -114.9181 299° West 224 258 5,600 -942 Descending Los Angeles Center
Sun 03:52:18 AM 36.0728 -114.9750 285° West 188 216 4,400 -1,096 Descending Los Angeles Center
Sun 03:53:19 AM 36.0733 -115.0361 271° West 172 198 3,500 -843 Descending Los Angeles Center
Sun 03:54:19 AM 36.0731 -115.0842 270° West 135 155 2,700 -687 Descending Los Angeles Center
Sun 03:55:30 AM 36.0733 -115.1317 270° West 146 168 2,000 -592 Descending Los Angeles Center
Sun 03:57:00 AM 36.0667 -115.1500 270° West  Level FlightAware Approximate

Login

Don't have an account? Register now (free) for customized features, flight alerts, and more!